createdAt,value
2017-09-22T00:00:03.843Z,11.11
2017-09-22T00:01:12.687Z,11.15
2017-09-22T00:02:21.531Z,11.09
2017-09-22T00:03:30.472Z,11.07
2017-09-22T00:04:39.315Z,11.04
2017-09-22T00:05:48.157Z,11.11
2017-09-22T00:06:57.099Z,11.03
2017-09-22T00:08:05.943Z,11.06
2017-09-22T00:09:14.984Z,11.14
2017-09-22T00:10:23.826Z,11.09
2017-09-22T00:11:32.665Z,11.06
2017-09-22T00:12:41.506Z,11.09
2017-09-22T00:13:50.350Z,11.09
2017-09-22T00:14:59.387Z,11.09
2017-09-22T00:16:08.230Z,11.09
2017-09-22T00:17:17.072Z,11.04
2017-09-22T00:18:25.916Z,11.03
2017-09-22T00:19:34.757Z,11.04
2017-09-22T00:20:43.799Z,11.07
2017-09-22T00:21:52.641Z,11.02
2017-09-22T00:23:01.484Z,10.97
2017-09-22T00:24:10.332Z,10.99
2017-09-22T00:25:19.174Z,10.97
2017-09-22T00:26:28.165Z,10.94
2017-09-22T00:27:37.343Z,10.89
2017-09-22T00:28:46.185Z,10.96
2017-09-22T00:29:55.028Z,10.89
2017-09-22T00:31:03.872Z,10.94
2017-09-22T00:32:13.094Z,10.88
2017-09-22T00:33:22.732Z,10.92
2017-09-22T00:34:31.575Z,10.88
2017-09-22T00:35:40.420Z,10.79
2017-09-22T00:36:49.261Z,10.81
2017-09-22T00:37:58.151Z,10.84
2017-09-22T00:39:06.992Z,10.86
2017-09-22T00:40:15.834Z,10.82
2017-09-22T00:41:24.676Z,10.79
2017-09-22T00:42:33.518Z,10.92
2017-09-22T00:43:42.514Z,10.81
2017-09-22T00:44:51.356Z,10.85
2017-09-22T00:46:00.199Z,10.81
2017-09-22T00:47:09.036Z,10.88
2017-09-22T00:48:17.878Z,10.91
2017-09-22T00:49:26.870Z,10.91
2017-09-22T00:50:35.712Z,10.81
2017-09-22T00:51:44.883Z,10.85
2017-09-22T00:52:53.726Z,10.85
2017-09-22T00:54:02.566Z,10.84
2017-09-22T00:55:11.407Z,10.78
2017-09-22T00:56:20.246Z,10.74
2017-09-22T00:57:29.087Z,10.76
2017-09-22T00:58:38.258Z,10.76
2017-09-22T00:59:47.099Z,10.84
2017-09-22T01:00:56.242Z,10.78
2017-09-22T01:02:05.079Z,10.78
2017-09-22T01:03:13.922Z,10.73
2017-09-22T01:04:22.770Z,10.74
2017-09-22T01:05:31.946Z,10.74
2017-09-22T01:06:41.089Z,10.78
2017-09-22T01:07:49.929Z,10.78
2017-09-22T01:08:58.772Z,10.7
2017-09-22T01:10:07.616Z,10.74
2017-09-22T01:11:16.452Z,10.78
2017-09-22T01:12:25.292Z,10.71
2017-09-22T01:13:34.137Z,10.73
2017-09-22T01:14:42.975Z,10.64
2017-09-22T01:15:51.818Z,10.61
2017-09-22T01:17:00.656Z,10.63
2017-09-22T01:18:09.897Z,10.63
2017-09-22T01:19:18.738Z,10.6
2017-09-22T01:20:27.913Z,10.6
2017-09-22T01:21:36.754Z,10.64
2017-09-22T01:22:45.594Z,10.6
2017-09-22T01:23:54.533Z,10.61
2017-09-22T01:25:03.379Z,10.68
2017-09-22T01:26:12.212Z,10.56
2017-09-22T01:27:21.054Z,10.64
2017-09-22T01:28:30.228Z,10.6
2017-09-22T01:29:39.121Z,10.6
2017-09-22T01:30:47.962Z,10.53
2017-09-22T01:31:57.139Z,10.63
2017-09-22T01:33:05.979Z,10.51
2017-09-22T01:34:15.149Z,10.64
2017-09-22T01:35:24.093Z,10.55
2017-09-22T01:36:32.932Z,10.55
2017-09-22T01:37:41.775Z,10.56
2017-09-22T01:38:50.616Z,10.53
2017-09-22T01:39:59.457Z,10.51
2017-09-22T01:41:08.600Z,10.51
2017-09-22T01:42:17.438Z,10.52
2017-09-22T01:43:26.281Z,10.47
2017-09-22T01:44:35.120Z,10.55
2017-09-22T01:45:43.960Z,10.53
2017-09-22T01:46:52.948Z,10.42
2017-09-22T01:48:01.791Z,10.44
2017-09-22T01:49:10.630Z,10.44
2017-09-22T01:50:19.470Z,10.42
2017-09-22T01:51:28.645Z,10.52
2017-09-22T01:52:37.742Z,10.51
2017-09-22T01:53:46.578Z,10.42
2017-09-22T01:54:55.421Z,10.44
2017-09-22T01:56:04.262Z,10.42
2017-09-22T01:57:13.103Z,10.44
2017-09-22T01:58:22.095Z,10.4
2017-09-22T01:59:30.936Z,10.41
2017-09-22T02:00:39.775Z,10.45
2017-09-22T02:01:48.620Z,10.44
2017-09-22T02:02:57.465Z,10.41
2017-09-22T02:04:06.937Z,10.45
2017-09-22T02:05:15.775Z,10.38
2017-09-22T02:06:24.615Z,10.41
2017-09-22T02:07:33.457Z,10.44
2017-09-22T02:08:42.298Z,10.32
2017-09-22T02:09:51.192Z,10.41
2017-09-22T02:11:00.363Z,10.42
2017-09-22T02:12:09.208Z,10.4
2017-09-22T02:13:18.048Z,10.33
2017-09-22T02:14:26.893Z,10.38
2017-09-22T02:15:35.935Z,10.4
2017-09-22T02:16:44.877Z,10.4
2017-09-22T02:17:53.722Z,10.34
2017-09-22T02:19:02.562Z,10.42
2017-09-22T02:20:11.405Z,10.34
2017-09-22T02:21:20.243Z,10.27
2017-09-22T02:22:29.085Z,10.27
2017-09-22T02:23:37.929Z,10.36
2017-09-22T02:24:46.774Z,10.25
2017-09-22T02:25:55.615Z,10.27
2017-09-22T02:27:04.710Z,10.27
2017-09-22T02:28:13.885Z,10.32
2017-09-22T02:29:22.725Z,10.3
2017-09-22T02:30:31.569Z,10.2
2017-09-22T02:31:40.412Z,10.22
2017-09-22T02:32:49.255Z,10.2
2017-09-22T02:33:58.099Z,10.18
2017-09-22T02:35:06.949Z,10.2
2017-09-22T02:36:16.121Z,10.29
2017-09-22T02:37:24.962Z,10.23
2017-09-22T02:38:34.005Z,10.14
2017-09-22T02:39:42.848Z,10.11
2017-09-22T02:40:51.690Z,10.2
2017-09-22T02:42:00.533Z,10.2
2017-09-22T02:43:09.378Z,10.2
2017-09-22T02:44:18.706Z,10.08
2017-09-22T02:45:27.545Z,10.11
2017-09-22T02:46:36.388Z,10.05
2017-09-22T02:47:45.231Z,10.07
2017-09-22T02:48:54.070Z,10.15
2017-09-22T02:50:03.112Z,10.01
2017-09-22T02:51:11.954Z,10.09
2017-09-22T02:52:20.796Z,10.17
2017-09-22T02:53:29.635Z,10.05
2017-09-22T02:54:38.476Z,10.09
2017-09-22T02:55:47.621Z,10.11
2017-09-22T02:56:56.464Z,10.11
2017-09-22T02:58:05.307Z,10.08
2017-09-22T02:59:14.148Z,10.09
2017-09-22T03:00:22.994Z,10.07
2017-09-22T03:01:32.134Z,10.15
2017-09-22T03:02:41.304Z,10.11
2017-09-22T03:03:50.146Z,10.05
2017-09-22T03:04:58.988Z,10.07
2017-09-22T03:06:07.824Z,10.04
2017-09-22T03:07:16.717Z,10.11
2017-09-22T03:08:25.556Z,10.07
2017-09-22T03:09:34.400Z,10.09
2017-09-22T03:10:43.239Z,10.04
2017-09-22T03:11:52.082Z,10.12
2017-09-22T03:13:01.074Z,10.08
2017-09-22T03:14:09.915Z,10.08
2017-09-22T03:15:18.756Z,10.07
2017-09-22T03:16:27.596Z,10.07
2017-09-22T03:17:36.437Z,10.11
2017-09-22T03:18:45.327Z,10.11
2017-09-22T03:19:54.164Z,10.07
2017-09-22T03:21:03.004Z,10.12
2017-09-22T03:22:11.845Z,10.12
2017-09-22T03:23:20.687Z,10.09
2017-09-22T03:24:29.580Z,10.09
2017-09-22T03:25:38.421Z,10.01
2017-09-22T03:26:47.264Z,10.09
2017-09-22T03:27:56.104Z,9.99
2017-09-22T03:29:04.946Z,10.04
2017-09-22T03:30:14.087Z,9.94
2017-09-22T03:31:22.926Z,9.99
2017-09-22T03:32:31.768Z,10.01
2017-09-22T03:33:40.608Z,9.94
2017-09-22T03:34:49.451Z,9.94
2017-09-22T03:35:58.693Z,9.97
2017-09-22T03:37:07.533Z,9.97
2017-09-22T03:38:16.375Z,9.96
2017-09-22T03:39:25.215Z,9.97
2017-09-22T03:40:34.057Z,9.96
2017-09-22T03:41:43.051Z,9.93
2017-09-22T03:42:51.892Z,10.01
2017-09-22T03:44:00.735Z,9.94
2017-09-22T03:45:09.579Z,10.01
2017-09-22T03:46:18.421Z,9.94
2017-09-22T03:47:27.361Z,9.91
2017-09-22T03:48:36.204Z,9.94
2017-09-22T03:49:45.048Z,9.9
2017-09-22T03:50:54.226Z,9.89
2017-09-22T03:52:03.065Z,9.86
2017-09-22T03:53:12.063Z,9.9
2017-09-22T03:54:20.905Z,9.93
2017-09-22T03:55:29.745Z,9.91
2017-09-22T03:56:38.584Z,9.94
2017-09-22T03:57:47.424Z,9.91
2017-09-22T03:58:56.517Z,9.9
2017-09-22T04:00:05.357Z,9.96
2017-09-22T04:01:14.195Z,9.93
2017-09-22T04:02:23.037Z,9.99
2017-09-22T04:03:31.878Z,10.01
2017-09-22T04:04:40.870Z,9.97
2017-09-22T04:05:49.710Z,9.94
2017-09-22T04:06:58.550Z,10.02
2017-09-22T04:08:07.390Z,9.99
2017-09-22T04:09:16.234Z,9.94
2017-09-22T04:10:25.704Z,10.07
2017-09-22T04:11:34.544Z,9.99
2017-09-22T04:12:43.386Z,10.07
2017-09-22T04:13:52.567Z,10.09
2017-09-22T04:15:01.736Z,10.11
2017-09-22T04:16:10.725Z,10.09
2017-09-22T04:17:19.568Z,10.07
2017-09-22T04:18:28.407Z,10.05
2017-09-22T04:19:37.250Z,10.12
2017-09-22T04:20:46.088Z,10.08
2017-09-22T04:21:55.313Z,10.18
2017-09-22T04:23:04.164Z,10.09
2017-09-22T04:24:13.331Z,10.15
2017-09-22T04:25:22.171Z,10.22
2017-09-22T04:26:31.012Z,10.14
2017-09-22T04:27:40.105Z,10.15
2017-09-22T04:28:49.281Z,10.2
2017-09-22T04:29:58.121Z,10.14
2017-09-22T04:31:06.964Z,10.2
2017-09-22T04:32:15.803Z,10.18
2017-09-22T04:33:24.794Z,10.15
2017-09-22T04:34:33.640Z,10.26
2017-09-22T04:35:42.476Z,10.17
2017-09-22T04:36:51.317Z,10.2
2017-09-22T04:38:00.158Z,10.32
2017-09-22T04:39:09.101Z,10.32
2017-09-22T04:40:17.941Z,10.27
2017-09-22T04:41:26.784Z,10.23
2017-09-22T04:42:35.624Z,10.3
2017-09-22T04:43:44.464Z,10.3
2017-09-22T04:44:53.404Z,10.26
2017-09-22T04:46:02.245Z,10.27
2017-09-22T04:47:11.085Z,10.32
2017-09-22T04:48:19.926Z,10.33
2017-09-22T04:49:28.763Z,10.25
2017-09-22T04:50:37.755Z,10.25
2017-09-22T04:51:46.592Z,10.2
2017-09-22T04:52:55.432Z,10.17
2017-09-22T04:54:04.272Z,10.2
2017-09-22T04:55:13.114Z,10.18
2017-09-22T04:56:22.057Z,10.18
2017-09-22T04:57:30.899Z,10.22
2017-09-22T04:58:39.737Z,10.26
2017-09-22T04:59:48.581Z,10.18
2017-09-22T05:00:57.419Z,10.2
2017-09-22T05:02:06.416Z,10.22
2017-09-22T05:03:15.262Z,10.29
2017-09-22T05:04:24.106Z,10.32
2017-09-22T05:05:32.946Z,10.33
2017-09-22T05:06:42.128Z,10.26
2017-09-22T05:07:50.978Z,10.22
2017-09-22T05:08:59.817Z,10.25
2017-09-22T05:10:08.661Z,10.3
2017-09-22T05:11:17.504Z,10.26
2017-09-22T05:12:26.347Z,10.2
2017-09-22T05:13:35.289Z,10.25
2017-09-22T05:14:44.133Z,10.25
2017-09-22T05:15:52.974Z,10.32
2017-09-22T05:17:01.820Z,10.26
2017-09-22T05:18:10.663Z,10.18
2017-09-22T05:19:19.708Z,10.32
2017-09-22T05:20:28.553Z,10.25
2017-09-22T05:21:37.400Z,10.34
2017-09-22T05:22:46.245Z,10.36
2017-09-22T05:23:55.090Z,10.27
2017-09-22T05:25:03.935Z,10.23
2017-09-22T05:26:12.776Z,10.29
2017-09-22T05:27:21.618Z,10.29
2017-09-22T05:28:30.459Z,10.33
2017-09-22T05:29:39.302Z,10.42
2017-09-22T05:30:48.395Z,10.36
2017-09-22T05:31:57.240Z,10.4
2017-09-22T05:33:06.081Z,10.36
2017-09-22T05:34:15.256Z,10.34
2017-09-22T05:35:24.098Z,10.38
2017-09-22T05:36:33.092Z,10.33
2017-09-22T05:37:41.937Z,10.36
2017-09-22T05:38:50.780Z,10.45
2017-09-22T05:39:59.624Z,10.44
2017-09-22T05:41:08.496Z,10.53
2017-09-22T05:42:17.611Z,10.45
2017-09-22T05:43:26.456Z,10.48
2017-09-22T05:44:35.297Z,10.53
2017-09-22T05:45:44.136Z,10.51
2017-09-22T05:46:52.983Z,10.52
2017-09-22T05:48:02.124Z,10.53
2017-09-22T05:49:10.969Z,10.61
2017-09-22T05:50:19.814Z,10.59
2017-09-22T05:51:28.658Z,10.61
2017-09-22T05:52:37.505Z,10.61
2017-09-22T05:53:46.350Z,10.61
2017-09-22T05:54:55.191Z,10.71
2017-09-22T05:56:04.368Z,10.7
2017-09-22T05:57:13.212Z,10.74
2017-09-22T05:58:22.056Z,10.73
2017-09-22T05:59:31.049Z,10.78
2017-09-22T06:00:40.224Z,10.85
2017-09-22T06:01:49.071Z,10.86
2017-09-22T06:02:57.916Z,10.84
2017-09-22T06:04:06.759Z,10.88
2017-09-22T06:05:15.703Z,10.86
2017-09-22T06:06:24.545Z,10.82
2017-09-22T06:07:33.717Z,10.84
2017-09-22T06:08:42.561Z,10.94
2017-09-22T06:09:51.401Z,10.96
2017-09-22T06:11:00.495Z,10.88
2017-09-22T06:12:09.340Z,10.96
2017-09-22T06:13:18.188Z,10.96
2017-09-22T06:14:27.033Z,11
2017-09-22T06:15:35.876Z,11
2017-09-22T06:16:45.203Z,10.96
2017-09-22T06:17:54.042Z,11.07
2017-09-22T06:19:02.885Z,11.03
2017-09-22T06:20:11.727Z,11.02
2017-09-22T06:21:20.568Z,11.03
2017-09-22T06:22:29.462Z,11.02
2017-09-22T06:23:38.304Z,11.04
2017-09-22T06:24:47.148Z,11.04
2017-09-22T06:25:56.319Z,11.04
2017-09-22T06:27:05.162Z,11.04
2017-09-22T06:28:14.057Z,11.03
2017-09-22T06:29:22.898Z,11.04
2017-09-22T06:30:31.738Z,11
2017-09-22T06:31:40.581Z,11
2017-09-22T06:32:49.422Z,11.07
2017-09-22T06:33:58.265Z,11.07
2017-09-22T06:35:07.110Z,11.09
2017-09-22T06:36:15.953Z,11.09
2017-09-22T06:37:25.125Z,11.07
2017-09-22T06:38:33.967Z,11.14
2017-09-22T06:39:42.958Z,11.03
2017-09-22T06:40:52.136Z,11.15
2017-09-22T06:42:00.978Z,11.14
2017-09-22T06:43:10.153Z,11.11
2017-09-22T06:44:18.998Z,11.17
2017-09-22T06:45:27.840Z,11.22
2017-09-22T06:46:36.685Z,11.22
2017-09-22T06:47:45.524Z,11.21
2017-09-22T06:48:54.367Z,11.18
2017-09-22T06:50:03.544Z,11.27
2017-09-22T06:51:12.483Z,11.28
2017-09-22T06:52:21.328Z,11.18
2017-09-22T06:53:30.169Z,11.29
2017-09-22T06:54:39.011Z,11.35
2017-09-22T06:55:47.856Z,11.37
2017-09-22T06:56:56.749Z,11.37
2017-09-22T06:58:05.590Z,11.49
2017-09-22T06:59:14.433Z,11.47
2017-09-22T07:00:23.276Z,11.49
2017-09-22T07:01:32.118Z,11.51
2017-09-22T07:02:41.058Z,11.47
2017-09-22T07:03:49.900Z,11.57
2017-09-22T07:04:58.743Z,11.51
2017-09-22T07:06:07.588Z,11.58
2017-09-22T07:07:16.436Z,11.7
2017-09-22T07:08:25.431Z,11.54
2017-09-22T07:09:34.273Z,11.67
2017-09-22T07:10:43.117Z,11.57
2017-09-22T07:11:51.958Z,11.65
2017-09-22T07:13:00.802Z,11.76
2017-09-22T07:14:10.035Z,11.76
2017-09-22T07:15:18.882Z,11.76
2017-09-22T07:16:27.725Z,11.79
2017-09-22T07:17:36.566Z,11.82
2017-09-22T07:18:45.410Z,11.8
2017-09-22T07:19:54.555Z,11.91
2017-09-22T07:21:03.398Z,11.86
2017-09-22T07:22:12.241Z,12.01
2017-09-22T07:23:21.084Z,11.88
2017-09-22T07:24:29.928Z,12.02
2017-09-22T07:25:39.073Z,12.07
2017-09-22T07:26:47.916Z,12.13
2017-09-22T07:27:56.762Z,12.19
2017-09-22T07:29:05.606Z,12.12
2017-09-22T07:30:14.449Z,12.1
2017-09-22T07:31:23.344Z,12.17
2017-09-22T07:32:32.185Z,12.23
2017-09-22T07:33:41.030Z,12.29
2017-09-22T07:34:49.871Z,12.32
2017-09-22T07:35:58.715Z,12.35
2017-09-22T07:37:07.758Z,12.29
2017-09-22T07:38:16.600Z,12.46
2017-09-22T07:39:25.440Z,12.5
2017-09-22T07:40:34.284Z,12.46
2017-09-22T07:41:43.124Z,12.47
2017-09-22T07:42:52.120Z,12.56
2017-09-22T07:44:00.964Z,12.64
2017-09-22T07:45:09.809Z,12.54
2017-09-22T07:46:18.654Z,12.65
2017-09-22T07:47:27.498Z,12.68
2017-09-22T07:48:36.491Z,12.67
2017-09-22T07:49:45.337Z,12.77
2017-09-22T07:50:54.180Z,12.74
2017-09-22T07:52:03.027Z,12.79
2017-09-22T07:53:11.872Z,12.79
2017-09-22T07:54:20.919Z,12.89
2017-09-22T07:55:29.763Z,12.92
2017-09-22T07:56:38.606Z,12.92
2017-09-22T07:57:47.452Z,12.97
2017-09-22T07:58:56.292Z,13
2017-09-22T08:00:05.240Z,13.14
2017-09-22T08:01:14.086Z,13.28
2017-09-22T08:02:22.930Z,13.33
2017-09-22T08:03:31.780Z,13.41
2017-09-22T08:04:40.954Z,13.42
2017-09-22T08:05:49.897Z,13.49
2017-09-22T08:06:58.743Z,13.38
2017-09-22T08:08:07.586Z,13.48
2017-09-22T08:09:16.432Z,13.48
2017-09-22T08:10:25.273Z,13.48
2017-09-22T08:11:34.167Z,13.57
2017-09-22T08:12:43.012Z,13.67
2017-09-22T08:13:51.856Z,13.77
2017-09-22T08:15:00.703Z,13.77
2017-09-22T08:16:09.877Z,13.82
2017-09-22T08:17:18.822Z,13.96
2017-09-22T08:18:27.665Z,14.06
2017-09-22T08:19:36.511Z,14.09
2017-09-22T08:20:45.358Z,14.12
2017-09-22T08:21:54.205Z,14.17
2017-09-22T08:23:03.100Z,14.36
2017-09-22T08:24:12.275Z,14.39
2017-09-22T08:25:21.118Z,14.46
2017-09-22T08:26:29.963Z,14.55
2017-09-22T08:27:38.808Z,14.58
2017-09-22T08:28:47.951Z,14.6
2017-09-22T08:29:56.796Z,14.54
2017-09-22T08:31:05.641Z,14.55
2017-09-22T08:32:14.484Z,14.72
2017-09-22T08:33:23.329Z,14.8
2017-09-22T08:34:32.425Z,14.68
2017-09-22T08:35:41.273Z,14.77
2017-09-22T08:36:50.466Z,14.78
2017-09-22T08:37:59.308Z,14.83
2017-09-22T08:39:08.155Z,14.95
2017-09-22T08:40:17.198Z,14.92
2017-09-22T08:41:26.045Z,14.98
2017-09-22T08:42:34.890Z,14.98
2017-09-22T08:43:43.933Z,15.03
2017-09-22T08:44:52.779Z,15.02
2017-09-22T08:46:01.776Z,15.03
2017-09-22T08:47:10.621Z,15.07
2017-09-22T08:48:19.471Z,15.17
2017-09-22T08:49:28.316Z,15.13
2017-09-22T08:50:37.163Z,15.13
2017-09-22T08:51:46.058Z,15.1
2017-09-22T08:52:54.904Z,15.1
2017-09-22T08:54:03.749Z,15.21
2017-09-22T08:55:12.592Z,15.19
2017-09-22T08:56:21.439Z,15.25
2017-09-22T08:57:30.723Z,15.28
2017-09-22T08:58:39.572Z,15.34
2017-09-22T08:59:48.419Z,15.32
2017-09-22T09:00:57.267Z,15.35
2017-09-22T09:02:06.445Z,15.35
2017-09-22T09:03:15.291Z,15.46
2017-09-22T09:04:24.138Z,15.56
2017-09-22T09:05:32.986Z,15.67
2017-09-22T09:06:41.832Z,15.69
2017-09-22T09:07:50.677Z,15.69
2017-09-22T09:08:59.574Z,15.82
2017-09-22T09:10:08.422Z,15.86
2017-09-22T09:11:17.267Z,15.93
2017-09-22T09:12:26.112Z,16.02
2017-09-22T09:13:34.958Z,16.05
2017-09-22T09:14:44.005Z,16.14
2017-09-22T09:15:52.850Z,16.21
2017-09-22T09:17:01.698Z,16.34
2017-09-22T09:18:10.547Z,16.41
2017-09-22T09:19:19.395Z,16.35
2017-09-22T09:20:28.392Z,16.48
2017-09-22T09:21:37.239Z,16.43
2017-09-22T09:22:46.095Z,16.41
2017-09-22T09:23:54.942Z,16.39
2017-09-22T09:25:03.789Z,16.43
2017-09-22T09:26:12.735Z,16.46
2017-09-22T09:27:21.587Z,16.45
2017-09-22T09:28:30.433Z,16.48
2017-09-22T09:29:39.278Z,16.48
2017-09-22T09:30:48.457Z,16.45
2017-09-22T09:31:57.504Z,16.49
2017-09-22T09:33:06.351Z,16.45
2017-09-22T09:34:15.199Z,16.63
2017-09-22T09:35:24.044Z,16.58
2017-09-22T09:36:32.889Z,16.6
2017-09-22T09:37:41.887Z,16.63
2017-09-22T09:38:50.734Z,16.56
2017-09-22T09:39:59.579Z,16.6
2017-09-22T09:41:08.427Z,16.56
2017-09-22T09:42:17.276Z,16.61
2017-09-22T09:43:26.425Z,16.71
2017-09-22T09:44:35.274Z,16.7
2017-09-22T09:45:44.121Z,16.66
2017-09-22T09:46:52.969Z,16.68
2017-09-22T09:48:01.818Z,16.73
2017-09-22T09:49:10.765Z,16.73
2017-09-22T09:50:19.612Z,16.68
2017-09-22T09:51:28.457Z,16.75
2017-09-22T09:52:37.305Z,16.76
2017-09-22T09:53:46.153Z,16.86
2017-09-22T09:54:55.300Z,16.82
2017-09-22T09:56:04.145Z,16.83
2017-09-22T09:57:12.993Z,16.93
2017-09-22T09:58:21.871Z,16.97
2017-09-22T09:59:32.122Z,16.96
2017-09-22T10:00:42.588Z,17
2017-09-22T10:01:53.422Z,17.03
2017-09-22T10:03:03.985Z,16.97
2017-09-22T10:04:14.477Z,16.97
2017-09-22T10:05:25.536Z,16.98
2017-09-22T10:06:35.684Z,17.16
2017-09-22T10:07:45.843Z,17.03
2017-09-22T10:08:57.096Z,17.08
2017-09-22T10:10:07.945Z,16.93
2017-09-22T10:11:19.006Z,17.08
2017-09-22T10:12:29.674Z,17.07
2017-09-22T10:13:40.358Z,17.08
2017-09-22T10:14:51.214Z,17.16
2017-09-22T10:16:01.147Z,17.12
2017-09-22T10:17:42.894Z,17.26
2017-09-22T10:18:51.745Z,17.14
2017-09-22T10:20:00.596Z,17.22
2017-09-22T10:21:09.444Z,17.18
2017-09-22T10:22:18.297Z,17.22
2017-09-22T10:23:27.297Z,17.28
2017-09-22T10:24:36.145Z,17.31
2017-09-22T10:25:45.331Z,17.28
2017-09-22T10:26:54.183Z,17.22
2017-09-22T10:28:03.036Z,17.19
2017-09-22T10:29:11.933Z,17.25
2017-09-22T10:30:20.780Z,17.31
2017-09-22T10:31:29.629Z,17.31
2017-09-22T10:32:38.475Z,17.36
2017-09-22T10:33:47.322Z,17.31
2017-09-22T10:34:56.274Z,17.3
2017-09-22T10:36:05.454Z,17.33
2017-09-22T10:37:14.309Z,17.38
2017-09-22T10:38:23.489Z,17.4
2017-09-22T10:39:32.335Z,17.43
2017-09-22T10:40:41.234Z,17.46
2017-09-22T10:41:50.414Z,17.49
2017-09-22T10:42:59.263Z,17.51
2017-09-22T10:44:08.109Z,17.54
2017-09-22T10:45:16.958Z,17.54
2017-09-22T10:46:25.854Z,17.54
2017-09-22T10:47:34.705Z,17.63
2017-09-22T10:48:43.552Z,17.68
2017-09-22T10:49:52.400Z,17.7
2017-09-22T10:51:01.249Z,17.71
2017-09-22T10:52:10.300Z,17.82
2017-09-22T10:53:19.150Z,17.89
2017-09-22T10:54:27.999Z,17.87
2017-09-22T10:55:36.850Z,17.99
2017-09-22T10:56:45.700Z,17.96
2017-09-22T10:57:54.601Z,18.05
2017-09-22T10:59:03.450Z,18.08
2017-09-22T11:00:12.300Z,18.1
2017-09-22T11:01:21.150Z,18.21
2017-09-22T11:02:29.998Z,18.17
2017-09-22T11:03:38.946Z,18.21
2017-09-22T11:04:47.795Z,18.1
2017-09-22T11:05:56.642Z,18.23
2017-09-22T11:07:05.495Z,18.17
2017-09-22T11:08:14.343Z,18.17
2017-09-22T11:09:23.341Z,18.07
2017-09-22T11:10:32.189Z,18.11
2017-09-22T11:11:41.040Z,18.1
2017-09-22T11:12:49.890Z,18.1
2017-09-22T11:13:58.738Z,18.11
2017-09-22T11:15:07.738Z,18.17
2017-09-22T11:16:16.585Z,18.2
2017-09-22T11:17:25.435Z,18.14
2017-09-22T11:18:34.283Z,18.15
2017-09-22T11:19:43.134Z,18.12
2017-09-22T11:20:52.067Z,18.07
2017-09-22T11:22:00.878Z,18.18
2017-09-22T11:23:09.729Z,18.18
2017-09-22T11:24:18.576Z,18.26
2017-09-22T11:25:27.424Z,18.23
2017-09-22T11:26:36.426Z,18.26
2017-09-22T11:27:45.277Z,18.17
2017-09-22T11:28:54.123Z,18.27
2017-09-22T11:30:02.974Z,18.2
2017-09-22T11:31:11.825Z,18.08
2017-09-22T11:32:20.725Z,18.12
2017-09-22T11:33:29.575Z,18.18
2017-09-22T11:34:38.429Z,18.23
2017-09-22T11:35:47.276Z,18.29
2017-09-22T11:36:56.123Z,18.27
2017-09-22T11:38:05.173Z,18.39
2017-09-22T11:39:14.022Z,18.48
2017-09-22T11:40:22.869Z,18.41
2017-09-22T11:41:31.718Z,18.55
2017-09-22T11:42:40.567Z,18.57
2017-09-22T11:43:50.068Z,18.55
2017-09-22T11:44:58.916Z,18.44
2017-09-22T11:46:07.764Z,18.54
2017-09-22T11:47:16.952Z,18.58
2017-09-22T11:48:25.801Z,18.6
2017-09-22T11:49:34.902Z,18.57
2017-09-22T11:50:44.086Z,18.67
2017-09-22T11:51:52.936Z,18.66
2017-09-22T11:53:01.785Z,18.65
2017-09-22T11:54:10.635Z,18.72
2017-09-22T11:55:19.539Z,18.84
2017-09-22T11:56:28.386Z,18.76
2017-09-22T11:57:37.241Z,18.72
2017-09-22T11:58:46.100Z,18.62
2017-09-22T11:59:54.965Z,18.66
2017-09-22T12:01:03.812Z,18.66
2017-09-22T12:02:12.666Z,18.66
2017-09-22T12:03:21.521Z,18.65
2017-09-22T12:04:30.373Z,18.62
2017-09-22T12:05:39.224Z,18.66
2017-09-22T12:06:48.077Z,18.66
2017-09-22T12:07:56.929Z,18.73
2017-09-22T12:09:05.782Z,18.78
2017-09-22T12:10:14.630Z,18.8
2017-09-22T12:11:23.481Z,18.7
2017-09-22T12:12:32.330Z,18.78
2017-09-22T12:13:41.192Z,18.81
2017-09-22T12:14:50.398Z,18.81
2017-09-22T12:15:59.242Z,18.82
2017-09-22T12:17:08.090Z,18.76
2017-09-22T12:18:17.273Z,18.75
2017-09-22T12:19:26.127Z,18.69
2017-09-22T12:20:34.979Z,18.76
2017-09-22T12:21:43.936Z,18.8
2017-09-22T12:22:52.799Z,18.87
2017-09-22T12:24:01.660Z,18.8
2017-09-22T12:25:10.860Z,18.87
2017-09-22T12:26:19.723Z,18.81
2017-09-22T12:27:28.728Z,18.87
2017-09-22T12:28:37.579Z,18.98
2017-09-22T12:29:46.427Z,18.98
2017-09-22T12:30:55.288Z,18.95
2017-09-22T12:32:04.165Z,18.91
2017-09-22T12:33:13.016Z,18.92
2017-09-22T12:34:21.871Z,19.08
2017-09-22T12:35:30.716Z,19.1
2017-09-22T12:36:39.566Z,19.06
2017-09-22T12:37:48.422Z,19.07
2017-09-22T12:38:57.428Z,19.07
2017-09-22T12:40:06.277Z,19.08
2017-09-22T12:41:15.128Z,19.08
2017-09-22T12:42:24.313Z,19.13
2017-09-22T12:43:33.167Z,19.16
2017-09-22T12:44:42.066Z,19.04
2017-09-22T12:45:50.959Z,19.11
2017-09-22T12:46:59.942Z,19.07
2017-09-22T12:48:08.793Z,19.08
2017-09-22T12:49:17.646Z,19.1
2017-09-22T12:50:26.749Z,19.04
2017-09-22T12:51:35.609Z,18.92
2017-09-22T12:52:44.792Z,18.91
2017-09-22T12:53:53.643Z,18.95
2017-09-22T12:55:02.492Z,18.94
2017-09-22T12:56:11.445Z,18.95
2017-09-22T12:57:20.296Z,19.07
2017-09-22T12:58:29.149Z,18.99
2017-09-22T12:59:37.999Z,18.9
2017-09-22T13:00:46.854Z,18.98
2017-09-22T13:01:55.821Z,18.76
2017-09-22T13:03:04.672Z,18.78
2017-09-22T13:04:13.526Z,18.75
2017-09-22T13:05:22.383Z,18.75
2017-09-22T13:06:31.233Z,18.76
2017-09-22T13:07:40.704Z,18.81
2017-09-22T13:08:49.821Z,18.76
2017-09-22T13:09:58.671Z,18.81
2017-09-22T13:11:07.523Z,18.75
2017-09-22T13:12:16.371Z,18.75
2017-09-22T13:13:25.652Z,18.75
2017-09-22T13:14:34.501Z,18.66
2017-09-22T13:15:43.353Z,18.72
2017-09-22T13:16:52.225Z,18.75
2017-09-22T13:18:01.137Z,18.72
2017-09-22T13:19:10.527Z,18.62
2017-09-22T13:20:19.382Z,18.75
2017-09-22T13:21:28.230Z,18.72
2017-09-22T13:22:37.082Z,18.73
2017-09-22T13:23:45.931Z,18.82
2017-09-22T13:24:54.917Z,18.81
2017-09-22T13:26:03.767Z,18.85
2017-09-22T13:27:12.631Z,18.76
2017-09-22T13:28:21.507Z,18.84
2017-09-22T13:29:30.696Z,18.81
2017-09-22T13:30:39.598Z,18.82
2017-09-22T13:31:48.467Z,18.85
2017-09-22T13:32:57.790Z,18.85
2017-09-22T13:34:06.641Z,18.76
2017-09-22T13:35:15.490Z,18.82
2017-09-22T13:36:24.594Z,18.78
2017-09-22T13:37:33.446Z,18.76
2017-09-22T13:38:42.297Z,18.81
2017-09-22T13:39:51.146Z,18.78
2017-09-22T13:40:59.997Z,18.7
2017-09-22T13:42:09.098Z,18.63
2017-09-22T13:43:17.946Z,18.66
2017-09-22T13:44:27.129Z,18.62
2017-09-22T13:45:35.978Z,18.69
2017-09-22T13:46:44.830Z,18.7
2017-09-22T13:47:53.847Z,18.73
2017-09-22T13:49:02.697Z,18.63
2017-09-22T13:50:11.554Z,18.66
2017-09-22T13:51:20.406Z,18.67
2017-09-22T13:52:29.268Z,18.65
2017-09-22T13:53:38.282Z,18.72
2017-09-22T13:54:47.159Z,18.72
2017-09-22T13:55:56.024Z,18.82
2017-09-22T13:57:04.882Z,18.82
2017-09-22T13:58:13.733Z,18.8
2017-09-22T13:59:22.829Z,18.85
2017-09-22T14:00:32.021Z,18.76
2017-09-22T14:01:40.876Z,18.78
2017-09-22T14:02:49.779Z,18.65
2017-09-22T14:03:58.628Z,18.75
2017-09-22T14:05:07.878Z,18.72
2017-09-22T14:06:16.745Z,18.63
2017-09-22T14:07:25.595Z,18.67
2017-09-22T14:08:34.443Z,18.62
2017-09-22T14:09:43.291Z,18.65
2017-09-22T14:10:52.144Z,18.7
2017-09-22T14:12:00.992Z,18.7
2017-09-22T14:13:09.837Z,18.72
2017-09-22T14:14:18.699Z,18.75
2017-09-22T14:15:27.547Z,18.73
2017-09-22T14:16:36.595Z,18.82
2017-09-22T14:17:45.444Z,18.66
2017-09-22T14:18:54.294Z,18.62
2017-09-22T14:20:03.148Z,18.6
2017-09-22T14:21:12.007Z,18.63
2017-09-22T14:22:21.104Z,18.65
2017-09-22T14:23:29.948Z,18.65
2017-09-22T14:24:38.797Z,18.72
2017-09-22T14:25:47.644Z,18.7
2017-09-22T14:26:56.491Z,18.7
2017-09-22T14:28:05.537Z,18.76
2017-09-22T14:29:14.385Z,18.75
2017-09-22T14:30:23.237Z,18.81
2017-09-22T14:31:32.084Z,18.8
2017-09-22T14:32:40.936Z,18.81
2017-09-22T14:33:50.083Z,18.84
2017-09-22T14:34:58.940Z,18.78
2017-09-22T14:36:07.788Z,18.85
2017-09-22T14:37:16.636Z,18.85
2017-09-22T14:38:25.822Z,18.84
2017-09-22T14:39:34.829Z,18.82
2017-09-22T14:40:43.670Z,18.75
2017-09-22T14:41:52.517Z,18.75
2017-09-22T14:43:01.363Z,18.72
2017-09-22T14:44:10.209Z,18.67
2017-09-22T14:45:19.058Z,18.58
2017-09-22T14:46:27.905Z,18.6
2017-09-22T14:47:36.752Z,18.6
2017-09-22T14:48:45.599Z,18.58
2017-09-22T14:49:54.446Z,18.58
2017-09-22T14:51:03.393Z,18.58
2017-09-22T14:52:12.239Z,18.58